sensor_id;sensor_type;location;lat;lon;timestamp;P1;durP1;ratioP1;P2;durP2;ratioP2
30824;SDS011;17550;45.486;12.222;2023-05-10T00:02:09;6.82;;;4.15;;
30824;SDS011;17550;45.486;12.222;2023-05-10T00:04:35;7.45;;;3.88;;
30824;SDS011;17550;45.486;12.222;2023-05-10T00:07:01;5.55;;;3.70;;
30824;SDS011;17550;45.486;12.222;2023-05-10T00:09:26;6.57;;;3.60;;
30824;SDS011;17550;45.486;12.222;2023-05-10T00:11:52;6.30;;;3.40;;
30824;SDS011;17550;45.486;12.222;2023-05-10T00:14:18;6.90;;;3.03;;
30824;SDS011;17550;45.486;12.222;2023-05-10T00:16:44;6.68;;;3.13;;
30824;SDS011;17550;45.486;12.222;2023-05-10T00:19:10;8.18;;;3.20;;
30824;SDS011;17550;45.486;12.222;2023-05-10T00:21:35;5.95;;;3.50;;
30824;SDS011;17550;45.486;12.222;2023-05-10T00:24:01;5.85;;;3.40;;
30824;SDS011;17550;45.486;12.222;2023-05-10T00:26:27;6.00;;;3.40;;
30824;SDS011;17550;45.486;12.222;2023-05-10T00:28:53;6.53;;;3.13;;
30824;SDS011;17550;45.486;12.222;2023-05-10T00:31:18;4.05;;;2.95;;
30824;SDS011;17550;45.486;12.222;2023-05-10T00:33:44;6.55;;;3.15;;
30824;SDS011;17550;45.486;12.222;2023-05-10T00:36:10;13.77;;;2.92;;
30824;SDS011;17550;45.486;12.222;2023-05-10T00:38:36;4.43;;;3.13;;
30824;SDS011;17550;45.486;12.222;2023-05-10T00:41:01;6.47;;;3.20;;
30824;SDS011;17550;45.486;12.222;2023-05-10T00:43:27;7.47;;;3.22;;
30824;SDS011;17550;45.486;12.222;2023-05-10T00:45:53;6.20;;;2.95;;
30824;SDS011;17550;45.486;12.222;2023-05-10T00:48:19;7.97;;;3.03;;
30824;SDS011;17550;45.486;12.222;2023-05-10T00:50:46;4.55;;;2.97;;
30824;SDS011;17550;45.486;12.222;2023-05-10T00:53:12;5.90;;;3.45;;
30824;SDS011;17550;45.486;12.222;2023-05-10T00:55:38;8.20;;;3.58;;
30824;SDS011;17550;45.486;12.222;2023-05-10T00:58:04;7.97;;;3.00;;
30824;SDS011;17550;45.486;12.222;2023-05-10T01:00:31;8.15;;;3.92;;
30824;SDS011;17550;45.486;12.222;2023-05-10T01:02:58;6.05;;;3.47;;
30824;SDS011;17550;45.486;12.222;2023-05-10T01:05:24;8.77;;;3.28;;
30824;SDS011;17550;45.486;12.222;2023-05-10T01:07:50;6.72;;;2.67;;
30824;SDS011;17550;45.486;12.222;2023-05-10T01:10:16;7.13;;;2.70;;
30824;SDS011;17550;45.486;12.222;2023-05-10T01:12:42;4.40;;;3.15;;
30824;SDS011;17550;45.486;12.222;2023-05-10T01:15:10;8.60;;;3.60;;
30824;SDS011;17550;45.486;12.222;2023-05-10T01:17:37;4.05;;;2.55;;
30824;SDS011;17550;45.486;12.222;2023-05-10T01:20:05;6.40;;;3.40;;
30824;SDS011;17550;45.486;12.222;2023-05-10T01:28:50;7.38;;;2.85;;
30824;SDS011;17550;45.486;12.222;2023-05-10T01:34:46;3.70;;;2.85;;
30824;SDS011;17550;45.486;12.222;2023-05-10T01:37:29;5.78;;;3.00;;
30824;SDS011;17550;45.486;12.222;2023-05-10T01:40:03;5.88;;;2.72;;
30824;SDS011;17550;45.486;12.222;2023-05-10T01:42:40;5.47;;;3.10;;
30824;SDS011;17550;45.486;12.222;2023-05-10T01:45:24;10.32;;;3.20;;
30824;SDS011;17550;45.486;12.222;2023-05-10T01:48:03;3.90;;;2.83;;
30824;SDS011;17550;45.486;12.222;2023-05-10T01:50:35;8.15;;;3.50;;
30824;SDS011;17550;45.486;12.222;2023-05-10T01:53:04;7.30;;;2.90;;
30824;SDS011;17550;45.486;12.222;2023-05-10T01:55:34;8.73;;;3.17;;
30824;SDS011;17550;45.486;12.222;2023-05-10T01:58:13;7.82;;;2.97;;
30824;SDS011;17550;45.486;12.222;2023-05-10T02:00:42;5.70;;;2.58;;
30824;SDS011;17550;45.486;12.222;2023-05-10T02:03:10;11.43;;;3.15;;
30824;SDS011;17550;45.486;12.222;2023-05-10T02:05:37;5.07;;;3.15;;
30824;SDS011;17550;45.486;12.222;2023-05-10T02:08:05;6.53;;;3.15;;
30824;SDS011;17550;45.486;12.222;2023-05-10T02:10:32;5.00;;;3.42;;
30824;SDS011;17550;45.486;12.222;2023-05-10T02:13:01;5.13;;;2.95;;
30824;SDS011;17550;45.486;12.222;2023-05-10T02:15:29;6.95;;;3.40;;
30824;SDS011;17550;45.486;12.222;2023-05-10T02:17:56;7.97;;;3.30;;
30824;SDS011;17550;45.486;12.222;2023-05-10T02:20:25;5.53;;;3.25;;
30824;SDS011;17550;45.486;12.222;2023-05-10T02:22:52;4.97;;;3.22;;
30824;SDS011;17550;45.486;12.222;2023-05-10T02:25:20;8.43;;;3.53;;
30824;SDS011;17550;45.486;12.222;2023-05-10T02:27:48;6.90;;;3.10;;
30824;SDS011;17550;45.486;12.222;2023-05-10T02:30:15;6.60;;;3.22;;
30824;SDS011;17550;45.486;12.222;2023-05-10T02:32:43;5.95;;;3.40;;
30824;SDS011;17550;45.486;12.222;2023-05-10T02:35:10;7.35;;;3.60;;
30824;SDS011;17550;45.486;12.222;2023-05-10T02:37:37;4.60;;;3.40;;
30824;SDS011;17550;45.486;12.222;2023-05-10T02:40:05;4.50;;;3.20;;
30824;SDS011;17550;45.486;12.222;2023-05-10T02:42:32;5.35;;;3.78;;
30824;SDS011;17550;45.486;12.222;2023-05-10T02:45:02;8.52;;;3.90;;
30824;SDS011;17550;45.486;12.222;2023-05-10T02:47:33;8.35;;;3.63;;
30824;SDS011;17550;45.486;12.222;2023-05-10T02:49:59;6.80;;;3.80;;
30824;SDS011;17550;45.486;12.222;2023-05-10T02:52:28;5.75;;;3.70;;
30824;SDS011;17550;45.486;12.222;2023-05-10T02:55:02;6.00;;;3.80;;
30824;SDS011;17550;45.486;12.222;2023-05-10T02:57:31;5.10;;;3.60;;
30824;SDS011;17550;45.486;12.222;2023-05-10T02:59:58;6.85;;;3.75;;
30824;SDS011;17550;45.486;12.222;2023-05-10T03:02:25;6.95;;;3.70;;
30824;SDS011;17550;45.486;12.222;2023-05-10T03:04:51;9.05;;;3.95;;
30824;SDS011;17550;45.486;12.222;2023-05-10T03:07:17;8.75;;;3.60;;
30824;SDS011;17550;45.486;12.222;2023-05-10T03:09:46;7.45;;;4.15;;
30824;SDS011;17550;45.486;12.222;2023-05-10T03:12:33;6.00;;;3.50;;
30824;SDS011;17550;45.486;12.222;2023-05-10T03:18:01;6.28;;;3.70;;
30824;SDS011;17550;45.486;12.222;2023-05-10T03:20:35;4.40;;;3.58;;
30824;SDS011;17550;45.486;12.222;2023-05-10T03:26:05;8.13;;;4.00;;
30824;SDS011;17550;45.486;12.222;2023-05-10T03:28:33;4.88;;;3.80;;
30824;SDS011;17550;45.486;12.222;2023-05-10T03:31:00;5.50;;;4.03;;
30824;SDS011;17550;45.486;12.222;2023-05-10T03:33:28;5.05;;;4.35;;
30824;SDS011;17550;45.486;12.222;2023-05-10T03:35:54;7.43;;;4.28;;
30824;SDS011;17550;45.486;12.222;2023-05-10T03:38:20;7.78;;;4.38;;
30824;SDS011;17550;45.486;12.222;2023-05-10T03:40:45;8.32;;;3.97;;
30824;SDS011;17550;45.486;12.222;2023-05-10T03:43:11;5.25;;;4.20;;
30824;SDS011;17550;45.486;12.222;2023-05-10T03:45:37;11.43;;;4.20;;
30824;SDS011;17550;45.486;12.222;2023-05-10T03:48:02;7.28;;;3.80;;
30824;SDS011;17550;45.486;12.222;2023-05-10T03:50:28;7.55;;;3.97;;
30824;SDS011;17550;45.486;12.222;2023-05-10T03:52:54;9.82;;;4.25;;
30824;SDS011;17550;45.486;12.222;2023-05-10T03:55:20;9.25;;;4.40;;
30824;SDS011;17550;45.486;12.222;2023-05-10T03:57:45;8.38;;;4.43;;
30824;SDS011;17550;45.486;12.222;2023-05-10T04:00:11;7.35;;;4.63;;
30824;SDS011;17550;45.486;12.222;2023-05-10T04:02:37;6.40;;;4.55;;
30824;SDS011;17550;45.486;12.222;2023-05-10T04:05:03;14.52;;;4.38;;
30824;SDS011;17550;45.486;12.222;2023-05-10T04:07:32;9.25;;;4.53;;
30824;SDS011;17550;45.486;12.222;2023-05-10T04:09:57;9.30;;;4.32;;
30824;SDS011;17550;45.486;12.222;2023-05-10T04:12:23;6.03;;;4.07;;
30824;SDS011;17550;45.486;12.222;2023-05-10T04:14:49;7.95;;;4.65;;
30824;SDS011;17550;45.486;12.222;2023-05-10T04:17:16;9.18;;;4.55;;
30824;SDS011;17550;45.486;12.222;2023-05-10T04:19:41;9.55;;;4.85;;
30824;SDS011;17550;45.486;12.222;2023-05-10T04:22:07;7.30;;;4.38;;
30824;SDS011;17550;45.486;12.222;2023-05-10T04:24:33;10.05;;;5.38;;
30824;SDS011;17550;45.486;12.222;2023-05-10T04:26:59;6.30;;;4.30;;
30824;SDS011;17550;45.486;12.222;2023-05-10T04:29:25;7.78;;;4.65;;
30824;SDS011;17550;45.486;12.222;2023-05-10T04:31:51;5.60;;;4.25;;
30824;SDS011;17550;45.486;12.222;2023-05-10T04:34:20;7.60;;;4.35;;
30824;SDS011;17550;45.486;12.222;2023-05-10T04:36:46;12.48;;;4.72;;
30824;SDS011;17550;45.486;12.222;2023-05-10T04:39:11;7.72;;;4.20;;
30824;SDS011;17550;45.486;12.222;2023-05-10T04:41:38;6.72;;;4.70;;
30824;SDS011;17550;45.486;12.222;2023-05-10T04:44:04;11.38;;;4.57;;
30824;SDS011;17550;45.486;12.222;2023-05-10T04:46:30;5.80;;;4.35;;
30824;SDS011;17550;45.486;12.222;2023-05-10T04:48:56;11.95;;;4.53;;
30824;SDS011;17550;45.486;12.222;2023-05-10T04:51:21;6.32;;;4.63;;
30824;SDS011;17550;45.486;12.222;2023-05-10T04:53:47;7.15;;;5.15;;
30824;SDS011;17550;45.486;12.222;2023-05-10T04:56:13;7.50;;;4.35;;
30824;SDS011;17550;45.486;12.222;2023-05-10T04:58:38;6.07;;;4.80;;
30824;SDS011;17550;45.486;12.222;2023-05-10T05:01:05;7.85;;;4.82;;
30824;SDS011;17550;45.486;12.222;2023-05-10T05:03:32;8.18;;;5.63;;
30824;SDS011;17550;45.486;12.222;2023-05-10T05:05:58;9.52;;;4.95;;
30824;SDS011;17550;45.486;12.222;2023-05-10T05:08:24;8.90;;;5.82;;
30824;SDS011;17550;45.486;12.222;2023-05-10T05:10:50;9.45;;;5.72;;
30824;SDS011;17550;45.486;12.222;2023-05-10T05:13:16;8.18;;;5.07;;
30824;SDS011;17550;45.486;12.222;2023-05-10T05:15:41;6.07;;;4.93;;
30824;SDS011;17550;45.486;12.222;2023-05-10T05:18:07;13.13;;;5.57;;
30824;SDS011;17550;45.486;12.222;2023-05-10T05:20:33;7.75;;;5.57;;
30824;SDS011;17550;45.486;12.222;2023-05-10T05:22:59;6.40;;;4.60;;
30824;SDS011;17550;45.486;12.222;2023-05-10T05:25:25;6.50;;;5.07;;
30824;SDS011;17550;45.486;12.222;2023-05-10T05:27:51;9.95;;;5.20;;
30824;SDS011;17550;45.486;12.222;2023-05-10T05:30:16;9.52;;;5.30;;
30824;SDS011;17550;45.486;12.222;2023-05-10T05:32:42;7.90;;;4.90;;
30824;SDS011;17550;45.486;12.222;2023-05-10T05:35:08;9.45;;;5.10;;
30824;SDS011;17550;45.486;12.222;2023-05-10T05:37:34;7.60;;;5.63;;
30824;SDS011;17550;45.486;12.222;2023-05-10T05:40:00;7.20;;;5.75;;
30824;SDS011;17550;45.486;12.222;2023-05-10T05:42:26;7.30;;;5.47;;
30824;SDS011;17550;45.486;12.222;2023-05-10T05:44:52;10.57;;;5.90;;
30824;SDS011;17550;45.486;12.222;2023-05-10T05:47:18;8.85;;;5.57;;
30824;SDS011;17550;45.486;12.222;2023-05-10T05:49:44;7.60;;;5.35;;
30824;SDS011;17550;45.486;12.222;2023-05-10T05:52:12;8.80;;;5.20;;
30824;SDS011;17550;45.486;12.222;2023-05-10T05:54:38;13.07;;;6.03;;
30824;SDS011;17550;45.486;12.222;2023-05-10T05:57:04;7.32;;;5.53;;
30824;SDS011;17550;45.486;12.222;2023-05-10T05:59:30;7.25;;;4.90;;
30824;SDS011;17550;45.486;12.222;2023-05-10T06:01:55;11.27;;;5.65;;
30824;SDS011;17550;45.486;12.222;2023-05-10T06:04:21;8.93;;;5.75;;
30824;SDS011;17550;45.486;12.222;2023-05-10T06:06:47;7.35;;;5.38;;
30824;SDS011;17550;45.486;12.222;2023-05-10T06:09:12;9.75;;;5.30;;
30824;SDS011;17550;45.486;12.222;2023-05-10T06:11:38;6.55;;;5.03;;
30824;SDS011;17550;45.486;12.222;2023-05-10T06:14:04;11.65;;;5.97;;
30824;SDS011;17550;45.486;12.222;2023-05-10T06:16:32;8.85;;;6.25;;
30824;SDS011;17550;45.486;12.222;2023-05-10T06:18:58;10.57;;;6.18;;
30824;SDS011;17550;45.486;12.222;2023-05-10T06:21:23;8.30;;;5.60;;
30824;SDS011;17550;45.486;12.222;2023-05-10T06:23:49;9.77;;;5.82;;
30824;SDS011;17550;45.486;12.222;2023-05-10T06:26:15;7.50;;;5.35;;
30824;SDS011;17550;45.486;12.222;2023-05-10T06:28:40;7.25;;;5.72;;
30824;SDS011;17550;45.486;12.222;2023-05-10T06:31:06;7.88;;;5.72;;
30824;SDS011;17550;45.486;12.222;2023-05-10T06:33:32;7.45;;;6.13;;
30824;SDS011;17550;45.486;12.222;2023-05-10T06:35:58;9.68;;;6.10;;
30824;SDS011;17550;45.486;12.222;2023-05-10T06:38:24;7.88;;;6.05;;
30824;SDS011;17550;45.486;12.222;2023-05-10T06:40:50;8.50;;;5.90;;
30824;SDS011;17550;45.486;12.222;2023-05-10T06:43:16;9.43;;;6.07;;
30824;SDS011;17550;45.486;12.222;2023-05-10T06:45:42;8.23;;;6.28;;
30824;SDS011;17550;45.486;12.222;2023-05-10T06:48:07;10.82;;;6.43;;
30824;SDS011;17550;45.486;12.222;2023-05-10T06:50:33;12.20;;;6.50;;
30824;SDS011;17550;45.486;12.222;2023-05-10T06:53:00;15.52;;;6.32;;
30824;SDS011;17550;45.486;12.222;2023-05-10T06:55:26;9.77;;;6.47;;
30824;SDS011;17550;45.486;12.222;2023-05-10T06:57:52;11.85;;;6.80;;
30824;SDS011;17550;45.486;12.222;2023-05-10T07:00:18;11.82;;;6.28;;
30824;SDS011;17550;45.486;12.222;2023-05-10T07:02:44;12.25;;;6.65;;
30824;SDS011;17550;45.486;12.222;2023-05-10T07:05:10;11.60;;;7.18;;
30824;SDS011;17550;45.486;12.222;2023-05-10T07:07:37;13.27;;;6.00;;
30824;SDS011;17550;45.486;12.222;2023-05-10T07:10:03;10.32;;;6.25;;
30824;SDS011;17550;45.486;12.222;2023-05-10T07:12:29;10.15;;;6.70;;
30824;SDS011;17550;45.486;12.222;2023-05-10T07:14:54;10.15;;;6.43;;
30824;SDS011;17550;45.486;12.222;2023-05-10T07:17:20;10.88;;;6.65;;
30824;SDS011;17550;45.486;12.222;2023-05-10T07:19:46;13.05;;;6.32;;
30824;SDS011;17550;45.486;12.222;2023-05-10T07:22:11;11.18;;;6.30;;
30824;SDS011;17550;45.486;12.222;2023-05-10T07:24:37;10.25;;;6.45;;
30824;SDS011;17550;45.486;12.222;2023-05-10T07:27:03;9.98;;;6.32;;
30824;SDS011;17550;45.486;12.222;2023-05-10T07:29:29;9.90;;;6.53;;
30824;SDS011;17550;45.486;12.222;2023-05-10T07:31:55;9.57;;;6.65;;
30824;SDS011;17550;45.486;12.222;2023-05-10T07:34:21;9.10;;;6.53;;
30824;SDS011;17550;45.486;12.222;2023-05-10T07:36:47;12.50;;;6.78;;
30824;SDS011;17550;45.486;12.222;2023-05-10T07:39:12;13.73;;;6.97;;
30824;SDS011;17550;45.486;12.222;2023-05-10T07:41:38;12.60;;;6.72;;
30824;SDS011;17550;45.486;12.222;2023-05-10T07:44:04;12.15;;;7.55;;
30824;SDS011;17550;45.486;12.222;2023-05-10T07:46:30;10.38;;;6.57;;
30824;SDS011;17550;45.486;12.222;2023-05-10T07:48:56;10.68;;;6.97;;
30824;SDS011;17550;45.486;12.222;2023-05-10T07:51:22;10.65;;;7.05;;
30824;SDS011;17550;45.486;12.222;2023-05-10T07:53:48;11.60;;;6.95;;
30824;SDS011;17550;45.486;12.222;2023-05-10T07:56:21;11.05;;;7.53;;
30824;SDS011;17550;45.486;12.222;2023-05-10T07:58:54;9.65;;;7.30;;
30824;SDS011;17550;45.486;12.222;2023-05-10T08:01:20;9.98;;;7.35;;
30824;SDS011;17550;45.486;12.222;2023-05-10T08:03:46;14.18;;;8.35;;
30824;SDS011;17550;45.486;12.222;2023-05-10T08:06:13;13.55;;;7.57;;
30824;SDS011;17550;45.486;12.222;2023-05-10T08:08:40;10.20;;;7.53;;
30824;SDS011;17550;45.486;12.222;2023-05-10T08:11:06;12.73;;;7.10;;
30824;SDS011;17550;45.486;12.222;2023-05-10T08:13:32;11.13;;;7.68;;
30824;SDS011;17550;45.486;12.222;2023-05-10T08:15:58;9.32;;;7.53;;
30824;SDS011;17550;45.486;12.222;2023-05-10T08:18:25;11.30;;;7.80;;
30824;SDS011;17550;45.486;12.222;2023-05-10T08:20:51;10.27;;;7.68;;
30824;SDS011;17550;45.486;12.222;2023-05-10T08:23:17;15.32;;;8.80;;
30824;SDS011;17550;45.486;12.222;2023-05-10T08:25:42;13.02;;;8.32;;
30824;SDS011;17550;45.486;12.222;2023-05-10T08:28:08;13.20;;;7.82;;
30824;SDS011;17550;45.486;12.222;2023-05-10T08:30:34;11.25;;;7.68;;
30824;SDS011;17550;45.486;12.222;2023-05-10T08:32:59;13.98;;;8.15;;
30824;SDS011;17550;45.486;12.222;2023-05-10T08:35:25;19.10;;;8.68;;
30824;SDS011;17550;45.486;12.222;2023-05-10T08:37:51;13.40;;;8.65;;
30824;SDS011;17550;45.486;12.222;2023-05-10T08:40:16;11.82;;;8.00;;
30824;SDS011;17550;45.486;12.222;2023-05-10T08:42:53;11.75;;;8.75;;
30824;SDS011;17550;45.486;12.222;2023-05-10T08:45:24;11.50;;;8.27;;
30824;SDS011;17550;45.486;12.222;2023-05-10T08:47:52;15.30;;;9.25;;
30824;SDS011;17550;45.486;12.222;2023-05-10T08:50:19;15.65;;;9.02;;
30824;SDS011;17550;45.486;12.222;2023-05-10T08:52:46;11.38;;;8.68;;
30824;SDS011;17550;45.486;12.222;2023-05-10T08:55:16;13.82;;;9.57;;
30824;SDS011;17550;45.486;12.222;2023-05-10T08:57:41;11.52;;;9.10;;
30824;SDS011;17550;45.486;12.222;2023-05-10T09:00:07;14.45;;;8.90;;
30824;SDS011;17550;45.486;12.222;2023-05-10T09:02:34;15.18;;;9.23;;
30824;SDS011;17550;45.486;12.222;2023-05-10T09:05:02;14.65;;;9.68;;
30824;SDS011;17550;45.486;12.222;2023-05-10T09:07:29;11.80;;;8.77;;
30824;SDS011;17550;45.486;12.222;2023-05-10T09:09:55;11.95;;;9.35;;
30824;SDS011;17550;45.486;12.222;2023-05-10T09:12:22;13.50;;;10.05;;
30824;SDS011;17550;45.486;12.222;2023-05-10T09:14:48;14.98;;;8.90;;
30824;SDS011;17550;45.486;12.222;2023-05-10T09:17:15;16.40;;;10.35;;
30824;SDS011;17550;45.486;12.222;2023-05-10T09:19:41;13.70;;;10.57;;
30824;SDS011;17550;45.486;12.222;2023-05-10T09:22:07;15.35;;;9.70;;
30824;SDS011;17550;45.486;12.222;2023-05-10T09:24:33;13.75;;;10.23;;
30824;SDS011;17550;45.486;12.222;2023-05-10T09:26:58;14.13;;;9.43;;
30824;SDS011;17550;45.486;12.222;2023-05-10T09:29:24;13.57;;;8.52;;
30824;SDS011;17550;45.486;12.222;2023-05-10T09:31:50;14.68;;;9.25;;
30824;SDS011;17550;45.486;12.222;2023-05-10T09:34:20;13.80;;;9.43;;
30824;SDS011;17550;45.486;12.222;2023-05-10T09:36:59;11.98;;;9.88;;
30824;SDS011;17550;45.486;12.222;2023-05-10T09:39:38;18.23;;;10.38;;
30824;SDS011;17550;45.486;12.222;2023-05-10T09:42:05;13.00;;;9.32;;
30824;SDS011;17550;45.486;12.222;2023-05-10T09:44:32;14.05;;;9.35;;
30824;SDS011;17550;45.486;12.222;2023-05-10T09:46:59;16.42;;;10.05;;
30824;SDS011;17550;45.486;12.222;2023-05-10T09:49:26;15.43;;;10.00;;
30824;SDS011;17550;45.486;12.222;2023-05-10T09:54:27;14.18;;;10.35;;
30824;SDS011;17550;45.486;12.222;2023-05-10T09:56:53;15.80;;;10.93;;
30824;SDS011;17550;45.486;12.222;2023-05-10T09:59:19;15.45;;;11.45;;
30824;SDS011;17550;45.486;12.222;2023-05-10T10:01:52;20.13;;;10.73;;
30824;SDS011;17550;45.486;12.222;2023-05-10T10:04:20;14.45;;;11.48;;
30824;SDS011;17550;45.486;12.222;2023-05-10T10:06:46;14.60;;;11.38;;
30824;SDS011;17550;45.486;12.222;2023-05-10T10:09:22;18.15;;;11.57;;
30824;SDS011;17550;45.486;12.222;2023-05-10T10:11:49;15.70;;;10.98;;
30824;SDS011;17550;45.486;12.222;2023-05-10T10:14:16;19.20;;;11.25;;
30824;SDS011;17550;45.486;12.222;2023-05-10T10:19:14;18.17;;;12.00;;
30824;SDS011;17550;45.486;12.222;2023-05-10T10:21:40;17.92;;;12.27;;
30824;SDS011;17550;45.486;12.222;2023-05-10T10:24:06;17.02;;;11.95;;
30824;SDS011;17550;45.486;12.222;2023-05-10T10:26:34;19.08;;;12.00;;
30824;SDS011;17550;45.486;12.222;2023-05-10T10:31:48;16.13;;;11.50;;
30824;SDS011;17550;45.486;12.222;2023-05-10T10:34:29;17.83;;;13.05;;
30824;SDS011;17550;45.486;12.222;2023-05-10T10:36:56;14.95;;;11.45;;
30824;SDS011;17550;45.486;12.222;2023-05-10T10:39:26;16.70;;;11.75;;
30824;SDS011;17550;45.486;12.222;2023-05-10T10:41:53;15.77;;;11.75;;
30824;SDS011;17550;45.486;12.222;2023-05-10T10:50:16;17.63;;;12.32;;
30824;SDS011;17550;45.486;12.222;2023-05-10T10:52:35;15.90;;;11.85;;
30824;SDS011;17550;45.486;12.222;2023-05-10T10:55:09;16.85;;;12.38;;
30824;SDS011;17550;45.486;12.222;2023-05-10T10:57:49;15.60;;;11.38;;
30824;SDS011;17550;45.486;12.222;2023-05-10T11:07:57;14.48;;;10.75;;
30824;SDS011;17550;45.486;12.222;2023-05-10T11:10:24;17.13;;;11.77;;
30824;SDS011;17550;45.486;12.222;2023-05-10T11:15:33;14.70;;;10.88;;
30824;SDS011;17550;45.486;12.222;2023-05-10T11:20:27;14.75;;;11.90;;
30824;SDS011;17550;45.486;12.222;2023-05-10T11:22:58;16.88;;;11.70;;
30824;SDS011;17550;45.486;12.222;2023-05-10T11:25:41;15.60;;;11.40;;
30824;SDS011;17550;45.486;12.222;2023-05-10T11:28:08;18.35;;;12.23;;
30824;SDS011;17550;45.486;12.222;2023-05-10T11:30:34;18.67;;;12.63;;
30824;SDS011;17550;45.486;12.222;2023-05-10T11:33:00;18.42;;;12.73;;
30824;SDS011;17550;45.486;12.222;2023-05-10T11:35:27;15.68;;;12.30;;
30824;SDS011;17550;45.486;12.222;2023-05-10T11:37:53;16.58;;;12.45;;
30824;SDS011;17550;45.486;12.222;2023-05-10T11:40:18;17.30;;;11.70;;
30824;SDS011;17550;45.486;12.222;2023-05-10T11:42:49;18.65;;;10.25;;
30824;SDS011;17550;45.486;12.222;2023-05-10T11:45:15;16.35;;;12.32;;
30824;SDS011;17550;45.486;12.222;2023-05-10T11:47:41;18.05;;;12.38;;
30824;SDS011;17550;45.486;12.222;2023-05-10T11:50:08;17.88;;;11.50;;
30824;SDS011;17550;45.486;12.222;2023-05-10T11:52:36;16.30;;;11.65;;
30824;SDS011;17550;45.486;12.222;2023-05-10T11:55:04;17.90;;;10.85;;
30824;SDS011;17550;45.486;12.222;2023-05-10T11:57:30;19.35;;;11.50;;
30824;SDS011;17550;45.486;12.222;2023-05-10T11:59:57;14.77;;;12.25;;
30824;SDS011;17550;45.486;12.222;2023-05-10T12:02:23;17.80;;;13.10;;
30824;SDS011;17550;45.486;12.222;2023-05-10T12:04:49;18.85;;;12.93;;
30824;SDS011;17550;45.486;12.222;2023-05-10T12:07:16;23.08;;;13.90;;
30824;SDS011;17550;45.486;12.222;2023-05-10T12:09:44;18.13;;;12.15;;
30824;SDS011;17550;45.486;12.222;2023-05-10T12:12:27;16.65;;;12.18;;
30824;SDS011;17550;45.486;12.222;2023-05-10T12:15:00;16.60;;;11.77;;
30824;SDS011;17550;45.486;12.222;2023-05-10T12:17:28;15.98;;;11.48;;
30824;SDS011;17550;45.486;12.222;2023-05-10T12:19:58;14.23;;;11.40;;
30824;SDS011;17550;45.486;12.222;2023-05-10T12:22:37;14.60;;;11.63;;
30824;SDS011;17550;45.486;12.222;2023-05-10T12:25:03;16.80;;;12.43;;
30824;SDS011;17550;45.486;12.222;2023-05-10T12:27:31;19.23;;;13.07;;
30824;SDS011;17550;45.486;12.222;2023-05-10T12:29:59;17.98;;;13.27;;
30824;SDS011;17550;45.486;12.222;2023-05-10T12:32:45;20.40;;;13.38;;
30824;SDS011;17550;45.486;12.222;2023-05-10T12:35:10;20.98;;;11.98;;
30824;SDS011;17550;45.486;12.222;2023-05-10T12:37:36;20.50;;;13.63;;
30824;SDS011;17550;45.486;12.222;2023-05-10T12:40:07;15.75;;;12.50;;
30824;SDS011;17550;45.486;12.222;2023-05-10T12:42:34;18.98;;;12.77;;
30824;SDS011;17550;45.486;12.222;2023-05-10T12:45:01;20.75;;;12.75;;
30824;SDS011;17550;45.486;12.222;2023-05-10T12:47:27;15.98;;;12.77;;
30824;SDS011;17550;45.486;12.222;2023-05-10T12:49:53;20.70;;;12.25;;
30824;SDS011;17550;45.486;12.222;2023-05-10T12:52:19;18.42;;;13.18;;
30824;SDS011;17550;45.486;12.222;2023-05-10T12:54:45;18.38;;;13.05;;
30824;SDS011;17550;45.486;12.222;2023-05-10T12:57:12;17.10;;;12.85;;
30824;SDS011;17550;45.486;12.222;2023-05-10T12:59:38;20.90;;;12.68;;
30824;SDS011;17550;45.486;12.222;2023-05-10T13:02:04;20.13;;;13.05;;
30824;SDS011;17550;45.486;12.222;2023-05-10T13:04:30;17.27;;;13.48;;
30824;SDS011;17550;45.486;12.222;2023-05-10T13:06:56;17.13;;;13.40;;
30824;SDS011;17550;45.486;12.222;2023-05-10T13:09:27;15.52;;;12.82;;
30824;SDS011;17550;45.486;12.222;2023-05-10T13:11:55;19.35;;;12.10;;
30824;SDS011;17550;45.486;12.222;2023-05-10T13:14:21;21.35;;;13.38;;
30824;SDS011;17550;45.486;12.222;2023-05-10T13:16:47;19.63;;;13.77;;
30824;SDS011;17550;45.486;12.222;2023-05-10T13:19:16;19.48;;;13.38;;
30824;SDS011;17550;45.486;12.222;2023-05-10T13:21:42;19.98;;;12.98;;
30824;SDS011;17550;45.486;12.222;2023-05-10T13:24:09;20.00;;;12.25;;
30824;SDS011;17550;45.486;12.222;2023-05-10T13:26:36;18.42;;;13.73;;
30824;SDS011;17550;45.486;12.222;2023-05-10T13:29:02;19.63;;;12.60;;
30824;SDS011;17550;45.486;12.222;2023-05-10T13:31:28;20.27;;;13.40;;
30824;SDS011;17550;45.486;12.222;2023-05-10T13:33:54;17.08;;;13.25;;
30824;SDS011;17550;45.486;12.222;2023-05-10T13:36:19;18.52;;;13.45;;
30824;SDS011;17550;45.486;12.222;2023-05-10T13:38:45;20.42;;;13.85;;
30824;SDS011;17550;45.486;12.222;2023-05-10T13:41:11;20.27;;;15.10;;
30824;SDS011;17550;45.486;12.222;2023-05-10T13:43:37;18.50;;;13.80;;
30824;SDS011;17550;45.486;12.222;2023-05-10T13:46:02;21.80;;;14.88;;
30824;SDS011;17550;45.486;12.222;2023-05-10T13:48:28;20.90;;;14.23;;
30824;SDS011;17550;45.486;12.222;2023-05-10T13:50:54;19.20;;;14.57;;
30824;SDS011;17550;45.486;12.222;2023-05-10T13:53:20;20.45;;;11.93;;
30824;SDS011;17550;45.486;12.222;2023-05-10T13:55:46;17.63;;;12.68;;
30824;SDS011;17550;45.486;12.222;2023-05-10T13:58:12;19.90;;;13.68;;
30824;SDS011;17550;45.486;12.222;2023-05-10T14:00:38;26.77;;;14.88;;
30824;SDS011;17550;45.486;12.222;2023-05-10T14:03:03;21.17;;;14.30;;
30824;SDS011;17550;45.486;12.222;2023-05-10T14:05:30;21.25;;;14.38;;
30824;SDS011;17550;45.486;12.222;2023-05-10T14:07:55;23.17;;;14.02;;
30824;SDS011;17550;45.486;12.222;2023-05-10T14:10:22;23.83;;;15.15;;
30824;SDS011;17550;45.486;12.222;2023-05-10T14:12:47;22.90;;;15.65;;
30824;SDS011;17550;45.486;12.222;2023-05-10T14:15:15;22.00;;;15.30;;
30824;SDS011;17550;45.486;12.222;2023-05-10T14:17:40;24.10;;;16.80;;
30824;SDS011;17550;45.486;12.222;2023-05-10T14:20:06;20.35;;;15.30;;
30824;SDS011;17550;45.486;12.222;2023-05-10T14:22:33;23.17;;;15.55;;
30824;SDS011;17550;45.486;12.222;2023-05-10T14:24:59;21.70;;;14.98;;
30824;SDS011;17550;45.486;12.222;2023-05-10T14:27:25;26.10;;;16.83;;
30824;SDS011;17550;45.486;12.222;2023-05-10T14:29:51;22.75;;;15.30;;
30824;SDS011;17550;45.486;12.222;2023-05-10T14:32:18;22.58;;;17.10;;
30824;SDS011;17550;45.486;12.222;2023-05-10T14:34:43;23.33;;;15.50;;
30824;SDS011;17550;45.486;12.222;2023-05-10T14:37:10;24.25;;;16.67;;
30824;SDS011;17550;45.486;12.222;2023-05-10T14:39:36;28.70;;;17.35;;
30824;SDS011;17550;45.486;12.222;2023-05-10T14:42:03;22.58;;;16.60;;
30824;SDS011;17550;45.486;12.222;2023-05-10T14:44:28;23.02;;;16.85;;
30824;SDS011;17550;45.486;12.222;2023-05-10T14:46:54;31.02;;;18.23;;
30824;SDS011;17550;45.486;12.222;2023-05-10T14:49:21;22.20;;;16.48;;
30824;SDS011;17550;45.486;12.222;2023-05-10T14:51:47;22.15;;;16.38;;
30824;SDS011;17550;45.486;12.222;2023-05-10T14:54:13;21.85;;;16.02;;
30824;SDS011;17550;45.486;12.222;2023-05-10T14:56:39;25.60;;;17.60;;
30824;SDS011;17550;45.486;12.222;2023-05-10T14:59:06;22.58;;;16.63;;
30824;SDS011;17550;45.486;12.222;2023-05-10T15:01:32;20.27;;;16.23;;
30824;SDS011;17550;45.486;12.222;2023-05-10T15:04:02;24.60;;;17.25;;
30824;SDS011;17550;45.486;12.222;2023-05-10T15:06:32;19.15;;;15.23;;